sensor_id;sensor_type;location;lat;lon;timestamp;P1;durP1;ratioP1;P2;durP2;ratioP2
28335;SDS011;15592;53.656;7.276;2022-08-03T00:01:20;7.78;;;3.88;;
28335;SDS011;15592;53.656;7.276;2022-08-03T00:03:46;7.78;;;4.22;;
28335;SDS011;15592;53.656;7.276;2022-08-03T00:06:12;7.95;;;4.35;;
28335;SDS011;15592;53.656;7.276;2022-08-03T00:08:37;8.32;;;4.28;;
28335;SDS011;15592;53.656;7.276;2022-08-03T00:11:03;8.35;;;3.83;;
28335;SDS011;15592;53.656;7.276;2022-08-03T00:13:30;10.18;;;4.70;;
28335;SDS011;15592;53.656;7.276;2022-08-03T00:15:56;10.18;;;4.18;;
28335;SDS011;15592;53.656;7.276;2022-08-03T00:18:22;8.40;;;4.03;;
28335;SDS011;15592;53.656;7.276;2022-08-03T00:20:48;9.13;;;4.10;;
28335;SDS011;15592;53.656;7.276;2022-08-03T00:23:13;7.18;;;3.70;;
28335;SDS011;15592;53.656;7.276;2022-08-03T00:25:39;6.50;;;3.72;;
28335;SDS011;15592;53.656;7.276;2022-08-03T00:28:05;9.80;;;3.70;;
28335;SDS011;15592;53.656;7.276;2022-08-03T00:30:31;10.20;;;3.88;;
28335;SDS011;15592;53.656;7.276;2022-08-03T00:32:57;7.55;;;3.55;;
28335;SDS011;15592;53.656;7.276;2022-08-03T00:35:23;6.70;;;3.63;;
28335;SDS011;15592;53.656;7.276;2022-08-03T00:37:49;6.60;;;3.65;;
28335;SDS011;15592;53.656;7.276;2022-08-03T00:40:16;6.80;;;3.70;;
28335;SDS011;15592;53.656;7.276;2022-08-03T00:42:55;8.77;;;3.75;;
28335;SDS011;15592;53.656;7.276;2022-08-03T00:45:27;10.05;;;3.85;;
28335;SDS011;15592;53.656;7.276;2022-08-03T00:47:55;9.00;;;4.05;;
28335;SDS011;15592;53.656;7.276;2022-08-03T00:50:22;8.55;;;3.95;;
28335;SDS011;15592;53.656;7.276;2022-08-03T00:52:49;11.90;;;4.07;;
28335;SDS011;15592;53.656;7.276;2022-08-03T00:55:19;8.27;;;3.70;;
28335;SDS011;15592;53.656;7.276;2022-08-03T00:57:45;7.75;;;3.78;;
28335;SDS011;15592;53.656;7.276;2022-08-03T01:00:12;8.60;;;3.80;;
28335;SDS011;15592;53.656;7.276;2022-08-03T01:02:39;6.40;;;3.58;;
28335;SDS011;15592;53.656;7.276;2022-08-03T01:05:05;4.88;;;3.50;;
28335;SDS011;15592;53.656;7.276;2022-08-03T01:10:34;7.15;;;3.47;;
28335;SDS011;15592;53.656;7.276;2022-08-03T01:13:16;8.45;;;4.20;;
28335;SDS011;15592;53.656;7.276;2022-08-03T01:18:51;7.72;;;3.42;;
28335;SDS011;15592;53.656;7.276;2022-08-03T01:21:37;7.45;;;4.07;;
28335;SDS011;15592;53.656;7.276;2022-08-03T01:24:29;6.82;;;3.25;;
28335;SDS011;15592;53.656;7.276;2022-08-03T01:27:10;6.68;;;3.63;;
28335;SDS011;15592;53.656;7.276;2022-08-03T01:32:40;7.72;;;4.00;;
28335;SDS011;15592;53.656;7.276;2022-08-03T01:35:15;8.70;;;4.07;;
28335;SDS011;15592;53.656;7.276;2022-08-03T01:37:54;8.38;;;3.97;;
28335;SDS011;15592;53.656;7.276;2022-08-03T01:40:25;5.75;;;3.92;;
28335;SDS011;15592;53.656;7.276;2022-08-03T01:42:53;9.63;;;3.70;;
28335;SDS011;15592;53.656;7.276;2022-08-03T01:45:22;9.68;;;3.70;;
28335;SDS011;15592;53.656;7.276;2022-08-03T01:47:49;10.10;;;4.53;;
28335;SDS011;15592;53.656;7.276;2022-08-03T01:50:18;8.30;;;4.20;;
28335;SDS011;15592;53.656;7.276;2022-08-03T01:52:47;6.53;;;3.72;;
28335;SDS011;15592;53.656;7.276;2022-08-03T01:55:15;9.15;;;3.95;;
28335;SDS011;15592;53.656;7.276;2022-08-03T01:57:43;11.57;;;4.80;;
28335;SDS011;15592;53.656;7.276;2022-08-03T02:00:09;10.98;;;3.83;;
28335;SDS011;15592;53.656;7.276;2022-08-03T02:02:36;7.60;;;3.60;;
28335;SDS011;15592;53.656;7.276;2022-08-03T02:05:03;8.43;;;3.60;;
28335;SDS011;15592;53.656;7.276;2022-08-03T02:07:31;7.75;;;3.60;;
28335;SDS011;15592;53.656;7.276;2022-08-03T02:09:58;7.10;;;3.55;;
28335;SDS011;15592;53.656;7.276;2022-08-03T02:12:28;6.32;;;3.38;;
28335;SDS011;15592;53.656;7.276;2022-08-03T02:14:56;11.52;;;4.35;;
28335;SDS011;15592;53.656;7.276;2022-08-03T02:17:24;7.47;;;3.70;;
28335;SDS011;15592;53.656;7.276;2022-08-03T02:19:51;8.88;;;3.63;;
28335;SDS011;15592;53.656;7.276;2022-08-03T02:22:20;7.85;;;3.83;;
28335;SDS011;15592;53.656;7.276;2022-08-03T02:24:48;8.57;;;3.90;;
28335;SDS011;15592;53.656;7.276;2022-08-03T02:27:25;10.95;;;3.88;;
28335;SDS011;15592;53.656;7.276;2022-08-03T02:30:04;5.63;;;3.72;;
28335;SDS011;15592;53.656;7.276;2022-08-03T02:32:35;8.13;;;4.50;;
28335;SDS011;15592;53.656;7.276;2022-08-03T02:35:03;9.00;;;4.18;;
28335;SDS011;15592;53.656;7.276;2022-08-03T02:37:35;7.97;;;4.07;;
28335;SDS011;15592;53.656;7.276;2022-08-03T02:40:07;9.60;;;4.32;;
28335;SDS011;15592;53.656;7.276;2022-08-03T02:42:35;8.52;;;4.03;;
28335;SDS011;15592;53.656;7.276;2022-08-03T02:45:04;7.95;;;3.80;;
28335;SDS011;15592;53.656;7.276;2022-08-03T02:47:34;6.47;;;3.50;;
28335;SDS011;15592;53.656;7.276;2022-08-03T02:50:02;5.82;;;3.90;;
28335;SDS011;15592;53.656;7.276;2022-08-03T02:52:28;8.98;;;3.95;;
28335;SDS011;15592;53.656;7.276;2022-08-03T02:54:57;7.00;;;4.15;;
28335;SDS011;15592;53.656;7.276;2022-08-03T02:57:25;7.28;;;4.43;;
28335;SDS011;15592;53.656;7.276;2022-08-03T02:59:52;9.30;;;4.38;;
28335;SDS011;15592;53.656;7.276;2022-08-03T03:02:20;8.90;;;4.50;;
28335;SDS011;15592;53.656;7.276;2022-08-03T03:04:48;6.88;;;4.50;;
28335;SDS011;15592;53.656;7.276;2022-08-03T03:07:16;11.15;;;5.63;;
28335;SDS011;15592;53.656;7.276;2022-08-03T03:09:42;11.10;;;5.25;;
28335;SDS011;15592;53.656;7.276;2022-08-03T03:12:08;8.70;;;5.18;;
28335;SDS011;15592;53.656;7.276;2022-08-03T03:14:36;10.07;;;5.68;;
28335;SDS011;15592;53.656;7.276;2022-08-03T03:17:03;6.78;;;4.95;;
28335;SDS011;15592;53.656;7.276;2022-08-03T03:19:31;8.93;;;4.97;;
28335;SDS011;15592;53.656;7.276;2022-08-03T03:21:58;8.65;;;5.22;;
28335;SDS011;15592;53.656;7.276;2022-08-03T03:24:26;6.60;;;4.50;;
28335;SDS011;15592;53.656;7.276;2022-08-03T03:26:54;8.05;;;4.75;;
28335;SDS011;15592;53.656;7.276;2022-08-03T03:29:23;13.23;;;5.30;;
28335;SDS011;15592;53.656;7.276;2022-08-03T03:31:49;6.97;;;4.82;;
28335;SDS011;15592;53.656;7.276;2022-08-03T03:34:15;8.98;;;4.70;;
28335;SDS011;15592;53.656;7.276;2022-08-03T03:36:42;9.93;;;5.10;;
28335;SDS011;15592;53.656;7.276;2022-08-03T03:39:07;9.02;;;4.50;;
28335;SDS011;15592;53.656;7.276;2022-08-03T03:41:34;7.18;;;4.25;;
28335;SDS011;15592;53.656;7.276;2022-08-03T03:44:00;10.52;;;4.63;;
28335;SDS011;15592;53.656;7.276;2022-08-03T03:46:26;13.00;;;5.03;;
28335;SDS011;15592;53.656;7.276;2022-08-03T03:48:52;9.77;;;4.22;;
28335;SDS011;15592;53.656;7.276;2022-08-03T03:51:18;8.50;;;4.65;;
28335;SDS011;15592;53.656;7.276;2022-08-03T03:53:53;17.15;;;5.35;;
28335;SDS011;15592;53.656;7.276;2022-08-03T03:56:20;8.43;;;4.47;;
28335;SDS011;15592;53.656;7.276;2022-08-03T03:58:46;8.07;;;4.63;;
28335;SDS011;15592;53.656;7.276;2022-08-03T04:01:11;9.52;;;4.53;;
28335;SDS011;15592;53.656;7.276;2022-08-03T04:03:37;6.70;;;3.72;;
28335;SDS011;15592;53.656;7.276;2022-08-03T04:06:03;6.65;;;3.90;;
28335;SDS011;15592;53.656;7.276;2022-08-03T04:08:47;10.30;;;4.18;;
28335;SDS011;15592;53.656;7.276;2022-08-03T04:11:35;7.53;;;4.00;;
28335;SDS011;15592;53.656;7.276;2022-08-03T04:14:15;7.80;;;4.10;;
28335;SDS011;15592;53.656;7.276;2022-08-03T04:16:54;8.50;;;4.95;;
28335;SDS011;15592;53.656;7.276;2022-08-03T04:21:59;9.20;;;3.38;;
28335;SDS011;15592;53.656;7.276;2022-08-03T04:24:29;7.95;;;3.60;;
28335;SDS011;15592;53.656;7.276;2022-08-03T04:26:59;11.05;;;4.10;;
28335;SDS011;15592;53.656;7.276;2022-08-03T04:29:28;7.63;;;3.92;;
28335;SDS011;15592;53.656;7.276;2022-08-03T04:31:57;7.43;;;3.65;;
28335;SDS011;15592;53.656;7.276;2022-08-03T04:34:24;5.25;;;3.33;;
28335;SDS011;15592;53.656;7.276;2022-08-03T04:36:51;7.47;;;3.80;;
28335;SDS011;15592;53.656;7.276;2022-08-03T04:39:22;4.72;;;3.03;;
28335;SDS011;15592;53.656;7.276;2022-08-03T04:41:52;4.88;;;3.25;;
28335;SDS011;15592;53.656;7.276;2022-08-03T04:44:20;7.83;;;3.50;;
28335;SDS011;15592;53.656;7.276;2022-08-03T04:46:49;5.25;;;3.90;;
28335;SDS011;15592;53.656;7.276;2022-08-03T04:49:15;7.80;;;3.78;;
28335;SDS011;15592;53.656;7.276;2022-08-03T04:51:42;10.25;;;4.78;;
28335;SDS011;15592;53.656;7.276;2022-08-03T04:54:12;12.43;;;5.57;;
28335;SDS011;15592;53.656;7.276;2022-08-03T04:56:41;10.57;;;5.22;;
28335;SDS011;15592;53.656;7.276;2022-08-03T04:59:10;10.80;;;4.90;;
28335;SDS011;15592;53.656;7.276;2022-08-03T05:01:36;7.78;;;4.50;;
28335;SDS011;15592;53.656;7.276;2022-08-03T05:04:04;10.30;;;4.90;;
28335;SDS011;15592;53.656;7.276;2022-08-03T05:06:29;8.55;;;4.90;;
28335;SDS011;15592;53.656;7.276;2022-08-03T05:08:55;8.95;;;5.05;;
28335;SDS011;15592;53.656;7.276;2022-08-03T05:11:21;9.18;;;4.80;;
28335;SDS011;15592;53.656;7.276;2022-08-03T05:13:46;13.07;;;5.78;;
28335;SDS011;15592;53.656;7.276;2022-08-03T05:16:12;9.63;;;5.47;;
28335;SDS011;15592;53.656;7.276;2022-08-03T05:18:39;9.60;;;5.50;;
28335;SDS011;15592;53.656;7.276;2022-08-03T05:21:05;8.90;;;5.05;;
28335;SDS011;15592;53.656;7.276;2022-08-03T05:23:31;9.98;;;5.50;;
28335;SDS011;15592;53.656;7.276;2022-08-03T05:25:57;10.60;;;5.50;;
28335;SDS011;15592;53.656;7.276;2022-08-03T05:28:22;12.52;;;5.65;;
28335;SDS011;15592;53.656;7.276;2022-08-03T05:30:48;8.77;;;5.10;;
28335;SDS011;15592;53.656;7.276;2022-08-03T05:33:14;9.38;;;5.05;;
28335;SDS011;15592;53.656;7.276;2022-08-03T05:35:39;13.70;;;5.32;;
28335;SDS011;15592;53.656;7.276;2022-08-03T05:38:05;10.65;;;5.28;;
28335;SDS011;15592;53.656;7.276;2022-08-03T05:40:31;13.73;;;5.03;;
28335;SDS011;15592;53.656;7.276;2022-08-03T05:42:57;11.00;;;4.95;;
28335;SDS011;15592;53.656;7.276;2022-08-03T05:45:23;10.68;;;5.00;;
28335;SDS011;15592;53.656;7.276;2022-08-03T05:47:49;10.50;;;5.05;;
28335;SDS011;15592;53.656;7.276;2022-08-03T05:50:15;10.95;;;5.18;;
28335;SDS011;15592;53.656;7.276;2022-08-03T05:52:42;8.43;;;4.57;;
28335;SDS011;15592;53.656;7.276;2022-08-03T05:55:08;8.85;;;4.50;;
28335;SDS011;15592;53.656;7.276;2022-08-03T05:57:36;13.25;;;4.43;;
28335;SDS011;15592;53.656;7.276;2022-08-03T06:00:03;16.25;;;5.10;;
28335;SDS011;15592;53.656;7.276;2022-08-03T06:02:33;9.48;;;4.13;;
28335;SDS011;15592;53.656;7.276;2022-08-03T06:05:00;11.27;;;4.22;;
28335;SDS011;15592;53.656;7.276;2022-08-03T06:07:26;8.40;;;4.32;;
28335;SDS011;15592;53.656;7.276;2022-08-03T06:09:52;9.35;;;3.60;;
28335;SDS011;15592;53.656;7.276;2022-08-03T06:12:17;10.75;;;4.53;;
28335;SDS011;15592;53.656;7.276;2022-08-03T06:14:43;9.85;;;3.95;;
28335;SDS011;15592;53.656;7.276;2022-08-03T06:17:08;10.13;;;4.13;;
28335;SDS011;15592;53.656;7.276;2022-08-03T06:19:34;7.28;;;3.50;;
28335;SDS011;15592;53.656;7.276;2022-08-03T06:22:00;9.38;;;4.07;;
28335;SDS011;15592;53.656;7.276;2022-08-03T06:24:25;8.73;;;4.28;;
28335;SDS011;15592;53.656;7.276;2022-08-03T06:26:51;9.68;;;4.07;;
28335;SDS011;15592;53.656;7.276;2022-08-03T06:29:17;14.23;;;4.25;;
28335;SDS011;15592;53.656;7.276;2022-08-03T06:31:43;10.40;;;3.92;;
28335;SDS011;15592;53.656;7.276;2022-08-03T06:34:08;7.88;;;4.10;;
28335;SDS011;15592;53.656;7.276;2022-08-03T06:36:34;13.70;;;4.30;;
28335;SDS011;15592;53.656;7.276;2022-08-03T06:39:00;9.77;;;4.40;;
28335;SDS011;15592;53.656;7.276;2022-08-03T06:41:26;11.38;;;4.63;;
28335;SDS011;15592;53.656;7.276;2022-08-03T06:43:52;12.02;;;4.43;;
28335;SDS011;15592;53.656;7.276;2022-08-03T06:46:18;14.48;;;4.53;;
28335;SDS011;15592;53.656;7.276;2022-08-03T06:48:44;8.55;;;4.35;;
28335;SDS011;15592;53.656;7.276;2022-08-03T06:51:10;8.10;;;4.22;;
28335;SDS011;15592;53.656;7.276;2022-08-03T06:53:36;7.78;;;4.25;;
28335;SDS011;15592;53.656;7.276;2022-08-03T06:56:05;6.93;;;3.88;;
28335;SDS011;15592;53.656;7.276;2022-08-03T06:58:31;8.40;;;3.83;;
28335;SDS011;15592;53.656;7.276;2022-08-03T07:00:56;13.68;;;4.47;;
28335;SDS011;15592;53.656;7.276;2022-08-03T07:03:22;8.07;;;3.95;;
28335;SDS011;15592;53.656;7.276;2022-08-03T07:05:48;11.52;;;4.47;;
28335;SDS011;15592;53.656;7.276;2022-08-03T07:08:14;13.10;;;4.72;;
28335;SDS011;15592;53.656;7.276;2022-08-03T07:10:41;7.40;;;3.97;;
28335;SDS011;15592;53.656;7.276;2022-08-03T07:13:06;7.05;;;4.50;;
28335;SDS011;15592;53.656;7.276;2022-08-03T07:15:32;7.03;;;3.50;;
28335;SDS011;15592;53.656;7.276;2022-08-03T07:17:58;7.93;;;3.97;;
28335;SDS011;15592;53.656;7.276;2022-08-03T07:20:24;16.10;;;3.92;;
28335;SDS011;15592;53.656;7.276;2022-08-03T07:22:49;8.68;;;3.53;;
28335;SDS011;15592;53.656;7.276;2022-08-03T07:25:15;9.13;;;4.05;;
28335;SDS011;15592;53.656;7.276;2022-08-03T07:27:44;8.35;;;3.40;;
28335;SDS011;15592;53.656;7.276;2022-08-03T07:30:11;8.07;;;4.00;;
28335;SDS011;15592;53.656;7.276;2022-08-03T07:32:38;11.00;;;4.13;;
28335;SDS011;15592;53.656;7.276;2022-08-03T07:35:04;9.10;;;4.22;;
28335;SDS011;15592;53.656;7.276;2022-08-03T07:37:31;14.63;;;4.20;;
28335;SDS011;15592;53.656;7.276;2022-08-03T07:39:57;7.13;;;3.85;;
28335;SDS011;15592;53.656;7.276;2022-08-03T07:42:24;9.30;;;3.97;;
28335;SDS011;15592;53.656;7.276;2022-08-03T07:44:51;8.80;;;4.07;;
28335;SDS011;15592;53.656;7.276;2022-08-03T07:47:17;7.53;;;4.32;;
28335;SDS011;15592;53.656;7.276;2022-08-03T07:49:43;8.65;;;3.80;;
28335;SDS011;15592;53.656;7.276;2022-08-03T07:52:09;8.75;;;3.80;;
28335;SDS011;15592;53.656;7.276;2022-08-03T07:54:53;7.88;;;3.95;;
28335;SDS011;15592;53.656;7.276;2022-08-03T07:57:19;8.50;;;3.83;;
28335;SDS011;15592;53.656;7.276;2022-08-03T07:59:45;7.35;;;3.40;;
28335;SDS011;15592;53.656;7.276;2022-08-03T08:02:11;9.52;;;3.92;;
28335;SDS011;15592;53.656;7.276;2022-08-03T08:04:37;5.85;;;3.20;;
28335;SDS011;15592;53.656;7.276;2022-08-03T08:07:02;9.32;;;3.95;;
28335;SDS011;15592;53.656;7.276;2022-08-03T08:09:28;8.13;;;3.92;;
28335;SDS011;15592;53.656;7.276;2022-08-03T08:11:54;7.10;;;3.67;;
28335;SDS011;15592;53.656;7.276;2022-08-03T08:14:20;11.43;;;4.47;;
28335;SDS011;15592;53.656;7.276;2022-08-03T08:16:45;7.60;;;3.97;;
28335;SDS011;15592;53.656;7.276;2022-08-03T08:19:12;6.80;;;3.55;;
28335;SDS011;15592;53.656;7.276;2022-08-03T08:21:40;7.15;;;3.50;;
28335;SDS011;15592;53.656;7.276;2022-08-03T08:24:06;8.32;;;3.50;;
28335;SDS011;15592;53.656;7.276;2022-08-03T08:26:32;9.35;;;3.90;;
28335;SDS011;15592;53.656;7.276;2022-08-03T08:28:58;6.97;;;3.80;;
28335;SDS011;15592;53.656;7.276;2022-08-03T08:31:23;9.00;;;3.58;;
28335;SDS011;15592;53.656;7.276;2022-08-03T08:33:49;8.23;;;3.65;;
28335;SDS011;15592;53.656;7.276;2022-08-03T08:36:14;7.13;;;3.92;;
28335;SDS011;15592;53.656;7.276;2022-08-03T08:38:40;8.18;;;3.50;;
28335;SDS011;15592;53.656;7.276;2022-08-03T08:41:07;6.40;;;3.15;;
28335;SDS011;15592;53.656;7.276;2022-08-03T08:43:34;13.10;;;3.90;;
28335;SDS011;15592;53.656;7.276;2022-08-03T08:46:00;9.80;;;3.85;;
28335;SDS011;15592;53.656;7.276;2022-08-03T08:48:26;7.93;;;3.60;;
28335;SDS011;15592;53.656;7.276;2022-08-03T08:50:54;8.52;;;3.70;;
28335;SDS011;15592;53.656;7.276;2022-08-03T08:53:21;6.60;;;3.50;;
28335;SDS011;15592;53.656;7.276;2022-08-03T08:55:50;6.13;;;3.83;;
28335;SDS011;15592;53.656;7.276;2022-08-03T08:58:18;7.82;;;3.38;;
28335;SDS011;15592;53.656;7.276;2022-08-03T09:00:47;9.35;;;4.07;;
28335;SDS011;15592;53.656;7.276;2022-08-03T09:03:13;5.63;;;3.53;;
28335;SDS011;15592;53.656;7.276;2022-08-03T09:05:41;10.00;;;3.55;;
28335;SDS011;15592;53.656;7.276;2022-08-03T09:08:07;7.25;;;3.55;;
28335;SDS011;15592;53.656;7.276;2022-08-03T09:10:33;12.25;;;3.83;;
28335;SDS011;15592;53.656;7.276;2022-08-03T09:12:59;7.80;;;2.80;;
28335;SDS011;15592;53.656;7.276;2022-08-03T09:15:26;8.55;;;3.35;;
28335;SDS011;15592;53.656;7.276;2022-08-03T09:17:57;10.15;;;3.90;;
28335;SDS011;15592;53.656;7.276;2022-08-03T09:20:25;7.55;;;4.07;;
28335;SDS011;15592;53.656;7.276;2022-08-03T09:23:00;6.95;;;3.60;;
28335;SDS011;15592;53.656;7.276;2022-08-03T09:25:32;7.30;;;3.50;;
28335;SDS011;15592;53.656;7.276;2022-08-03T09:28:03;6.15;;;3.67;;
28335;SDS011;15592;53.656;7.276;2022-08-03T09:30:30;7.05;;;3.95;;
28335;SDS011;15592;53.656;7.276;2022-08-03T09:33:07;9.75;;;3.97;;
28335;SDS011;15592;53.656;7.276;2022-08-03T09:35:44;6.60;;;3.50;;
28335;SDS011;15592;53.656;7.276;2022-08-03T09:40:37;8.32;;;3.60;;
28335;SDS011;15592;53.656;7.276;2022-08-03T09:43:03;11.05;;;3.85;;
28335;SDS011;15592;53.656;7.276;2022-08-03T09:45:28;8.65;;;3.58;;
28335;SDS011;15592;53.656;7.276;2022-08-03T09:47:54;7.88;;;3.95;;
28335;SDS011;15592;53.656;7.276;2022-08-03T09:50:20;9.02;;;3.70;;
28335;SDS011;15592;53.656;7.276;2022-08-03T09:52:46;9.20;;;3.83;;
28335;SDS011;15592;53.656;7.276;2022-08-03T09:55:15;6.75;;;3.55;;
28335;SDS011;15592;53.656;7.276;2022-08-03T09:57:41;10.70;;;3.95;;
28335;SDS011;15592;53.656;7.276;2022-08-03T10:02:40;13.15;;;3.80;;
28335;SDS011;15592;53.656;7.276;2022-08-03T10:05:07;7.90;;;3.55;;
28335;SDS011;15592;53.656;7.276;2022-08-03T10:07:41;7.45;;;3.30;;
28335;SDS011;15592;53.656;7.276;2022-08-03T10:10:09;13.02;;;4.25;;
28335;SDS011;15592;53.656;7.276;2022-08-03T10:12:34;9.98;;;3.97;;
28335;SDS011;15592;53.656;7.276;2022-08-03T10:15:01;7.20;;;2.65;;
28335;SDS011;15592;53.656;7.276;2022-08-03T10:17:27;8.00;;;3.35;;
28335;SDS011;15592;53.656;7.276;2022-08-03T10:19:53;7.60;;;3.30;;
28335;SDS011;15592;53.656;7.276;2022-08-03T10:22:20;10.32;;;3.50;;
28335;SDS011;15592;53.656;7.276;2022-08-03T10:27:21;9.35;;;3.20;;
28335;SDS011;15592;53.656;7.276;2022-08-03T10:29:52;6.60;;;3.08;;
28335;SDS011;15592;53.656;7.276;2022-08-03T10:35:07;7.68;;;3.15;;
28335;SDS011;15592;53.656;7.276;2022-08-03T10:37:46;8.27;;;3.60;;
28335;SDS011;15592;53.656;7.276;2022-08-03T10:40:21;6.70;;;3.30;;
28335;SDS011;15592;53.656;7.276;2022-08-03T10:42:48;10.35;;;3.65;;
28335;SDS011;15592;53.656;7.276;2022-08-03T10:45:19;7.18;;;3.15;;
28335;SDS011;15592;53.656;7.276;2022-08-03T10:47:48;7.60;;;3.50;;
28335;SDS011;15592;53.656;7.276;2022-08-03T10:50:15;7.60;;;3.35;;
28335;SDS011;15592;53.656;7.276;2022-08-03T10:53:02;6.72;;;3.30;;
28335;SDS011;15592;53.656;7.276;2022-08-03T10:55:31;8.38;;;3.55;;
28335;SDS011;15592;53.656;7.276;2022-08-03T11:01:03;12.10;;;3.65;;
28335;SDS011;15592;53.656;7.276;2022-08-03T11:03:30;10.38;;;3.72;;
28335;SDS011;15592;53.656;7.276;2022-08-03T11:11:42;9.98;;;3.15;;
28335;SDS011;15592;53.656;7.276;2022-08-03T11:14:14;7.65;;;3.60;;
28335;SDS011;15592;53.656;7.276;2022-08-03T11:16:43;7.45;;;3.15;;
28335;SDS011;15592;53.656;7.276;2022-08-03T11:19:17;11.68;;;3.83;;
28335;SDS011;15592;53.656;7.276;2022-08-03T11:27:15;9.98;;;3.65;;
28335;SDS011;15592;53.656;7.276;2022-08-03T11:40:41;7.60;;;3.70;;
28335;SDS011;15592;53.656;7.276;2022-08-03T11:48:40;9.48;;;3.13;;
28335;SDS011;15592;53.656;7.276;2022-08-03T11:51:24;8.80;;;3.13;;
28335;SDS011;15592;53.656;7.276;2022-08-03T11:56:20;5.82;;;3.60;;
28335;SDS011;15592;53.656;7.276;2022-08-03T11:58:46;15.60;;;4.07;;
28335;SDS011;15592;53.656;7.276;2022-08-03T12:01:12;7.13;;;3.33;;
28335;SDS011;15592;53.656;7.276;2022-08-03T12:03:41;11.45;;;3.72;;
28335;SDS011;15592;53.656;7.276;2022-08-03T12:06:11;13.50;;;4.30;;
28335;SDS011;15592;53.656;7.276;2022-08-03T12:08:39;10.43;;;2.97;;
28335;SDS011;15592;53.656;7.276;2022-08-03T12:11:07;8.43;;;3.30;;
28335;SDS011;15592;53.656;7.276;2022-08-03T12:16:08;9.68;;;4.03;;
28335;SDS011;15592;53.656;7.276;2022-08-03T12:18:34;10.95;;;4.15;;
28335;SDS011;15592;53.656;7.276;2022-08-03T12:21:04;8.10;;;3.78;;
28335;SDS011;15592;53.656;7.276;2022-08-03T12:23:32;7.75;;;3.60;;
28335;SDS011;15592;53.656;7.276;2022-08-03T12:26:02;6.88;;;3.22;;
28335;SDS011;15592;53.656;7.276;2022-08-03T12:28:29;11.18;;;3.58;;
28335;SDS011;15592;53.656;7.276;2022-08-03T12:30:59;7.20;;;3.50;;
28335;SDS011;15592;53.656;7.276;2022-08-03T12:33:26;8.68;;;3.60;;
28335;SDS011;15592;53.656;7.276;2022-08-03T12:36:03;10.38;;;3.80;;
28335;SDS011;15592;53.656;7.276;2022-08-03T12:38:29;11.10;;;4.07;;
28335;SDS011;15592;53.656;7.276;2022-08-03T12:40:57;9.88;;;3.72;;
28335;SDS011;15592;53.656;7.276;2022-08-03T12:43:24;13.25;;;4.43;;
28335;SDS011;15592;53.656;7.276;2022-08-03T12:45:50;9.88;;;3.45;;
28335;SDS011;15592;53.656;7.276;2022-08-03T12:48:15;12.02;;;3.58;;
28335;SDS011;15592;53.656;7.276;2022-08-03T12:50:41;10.05;;;4.00;;
28335;SDS011;15592;53.656;7.276;2022-08-03T12:53:08;6.38;;;3.30;;
28335;SDS011;15592;53.656;7.276;2022-08-03T12:55:35;8.60;;;3.88;;
28335;SDS011;15592;53.656;7.276;2022-08-03T12:58:02;10.32;;;4.28;;
28335;SDS011;15592;53.656;7.276;2022-08-03T13:00:29;16.50;;;6.50;;
28335;SDS011;15592;53.656;7.276;2022-08-03T13:03:05;11.68;;;7.80;;
28335;SDS011;15592;53.656;7.276;2022-08-03T13:05:31;19.83;;;8.50;;
28335;SDS011;15592;53.656;7.276;2022-08-03T13:08:20;22.33;;;10.23;;
28335;SDS011;15592;53.656;7.276;2022-08-03T13:10:47;25.60;;;10.60;;
28335;SDS011;15592;53.656;7.276;2022-08-03T13:13:13;17.95;;;10.15;;
28335;SDS011;15592;53.656;7.276;2022-08-03T13:15:39;16.52;;;9.57;;
28335;SDS011;15592;53.656;7.276;2022-08-03T13:18:05;18.58;;;8.77;;
28335;SDS011;15592;53.656;7.276;2022-08-03T13:20:30;15.60;;;9.40;;
28335;SDS011;15592;53.656;7.276;2022-08-03T13:22:56;14.93;;;8.88;;
28335;SDS011;15592;53.656;7.276;2022-08-03T13:25:22;20.40;;;9.65;;
28335;SDS011;15592;53.656;7.276;2022-08-03T13:27:48;19.35;;;10.07;;
28335;SDS011;15592;53.656;7.276;2022-08-03T13:30:14;18.67;;;10.60;;
28335;SDS011;15592;53.656;7.276;2022-08-03T13:32:40;19.45;;;10.18;;
28335;SDS011;15592;53.656;7.276;2022-08-03T13:35:07;14.73;;;9.13;;
28335;SDS011;15592;53.656;7.276;2022-08-03T13:37:33;16.65;;;8.23;;
28335;SDS011;15592;53.656;7.276;2022-08-03T13:40:00;20.92;;;6.75;;
28335;SDS011;15592;53.656;7.276;2022-08-03T13:42:27;26.52;;;8.00;;
28335;SDS011;15592;53.656;7.276;2022-08-03T13:44:54;16.95;;;6.43;;
28335;SDS011;15592;53.656;7.276;2022-08-03T13:47:20;19.08;;;6.38;;
28335;SDS011;15592;53.656;7.276;2022-08-03T13:49:45;16.13;;;5.97;;
28335;SDS011;15592;53.656;7.276;2022-08-03T13:52:11;17.30;;;5.82;;
28335;SDS011;15592;53.656;7.276;2022-08-03T13:54:37;19.20;;;6.10;;
28335;SDS011;15592;53.656;7.276;2022-08-03T13:57:02;19.77;;;6.45;;
28335;SDS011;15592;53.656;7.276;2022-08-03T13:59:28;12.68;;;5.28;;
28335;SDS011;15592;53.656;7.276;2022-08-03T14:01:54;17.55;;;6.20;;
28335;SDS011;15592;53.656;7.276;2022-08-03T14:04:20;15.23;;;5.72;;
28335;SDS011;15592;53.656;7.276;2022-08-03T14:06:46;14.57;;;5.75;;
28335;SDS011;15592;53.656;7.276;2022-08-03T14:09:13;15.05;;;6.20;;
28335;SDS011;15592;53.656;7.276;2022-08-03T14:11:40;19.02;;;5.88;;
28335;SDS011;15592;53.656;7.276;2022-08-03T14:14:06;25.08;;;6.82;;
28335;SDS011;15592;53.656;7.276;2022-08-03T14:16:32;11.20;;;5.72;;
28335;SDS011;15592;53.656;7.276;2022-08-03T14:18:58;14.20;;;5.18;;
28335;SDS011;15592;53.656;7.276;2022-08-03T14:21:24;13.73;;;5.88;;
28335;SDS011;15592;53.656;7.276;2022-08-03T14:23:50;12.90;;;4.93;;
28335;SDS011;15592;53.656;7.276;2022-08-03T14:26:15;15.82;;;5.30;;
28335;SDS011;15592;53.656;7.276;2022-08-03T14:28:42;11.25;;;5.20;;
28335;SDS011;15592;53.656;7.276;2022-08-03T14:31:08;20.55;;;6.60;;
28335;SDS011;15592;53.656;7.276;2022-08-03T14:33:34;18.02;;;6.30;;
28335;SDS011;15592;53.656;7.276;2022-08-03T14:35:59;18.48;;;5.88;;
28335;SDS011;15592;53.656;7.276;2022-08-03T14:38:25;13.52;;;5.70;;
28335;SDS011;15592;53.656;7.276;2022-08-03T14:40:50;15.05;;;5.72;;
28335;SDS011;15592;53.656;7.276;2022-08-03T14:43:17;11.40;;;5.05;;
28335;SDS011;15592;53.656;7.276;2022-08-03T14:45:44;14.90;;;5.10;;
28335;SDS011;15592;53.656;7.276;2022-08-03T14:48:12;12.20;;;5.20;;
28335;SDS011;15592;53.656;7.276;2022-08-03T14:50:38;13.25;;;5.15;;
28335;SDS011;15592;53.656;7.276;2022-08-03T14:53:03;12.60;;;4.95;;
28335;SDS011;15592;53.656;7.276;2022-08-03T14:55:29;16.05;;;5.25;;
28335;SDS011;15592;53.656;7.276;2022-08-03T14:57:55;19.95;;;6.90;;
28335;SDS011;15592;53.656;7.276;2022-08-03T15:00:20;20.48;;;7.22;;
28335;SDS011;15592;53.656;7.276;2022-08-03T15:02:46;20.25;;;6.75;;
28335;SDS011;15592;53.656;7.276;2022-08-03T15:05:11;16.92;;;6.15;;
28335;SDS011;15592;53.656;7.276;2022-08-03T15:07:39;15.45;;;5.70;;
28335;SDS011;15592;53.656;7.276;2022-08-03T15:10:05;11.60;;;5.13;;
28335;SDS011;15592;53.656;7.276;2022-08-03T15:12:31;12.60;;;6.00;;
28335;SDS011;15592;53.656;7.276;2022-08-03T15:14:56;12.32;;;5.07;;
28335;SDS011;15592;53.656;7.276;2022-08-03T15:17:22;13.30;;;5.28;;
28335;SDS011;15592;53.656;7.276;2022-08-03T15:19:48;12.88;;;4.38;;
28335;SDS011;15592;53.656;7.276;2022-08-03T15:22:13;11.70;;;4.90;;
28335;SDS011;15592;53.656;7.276;2022-08-03T15:24:41;14.02;;;4.60;;
28335;SDS011;15592;53.656;7.276;2022-08-03T15:27:07;11.20;;;4.20;;
28335;SDS011;15592;53.656;7.276;2022-08-03T15:29:32;15.13;;;4.85;;
28335;SDS011;15592;53.656;7.276;2022-08-03T15:31:58;9.02;;;4.55;;
28335;SDS011;15592;53.656;7.276;2022-08-03T15:34:24;9.93;;;4.30;;
28335;SDS011;15592;53.656;7.276;2022-08-03T15:36:49;11.35;;;4.20;;
28335;SDS011;15592;53.656;7.276;2022-08-03T15:39:18;10.88;;;3.97;;
28335;SDS011;15592;53.656;7.276;2022-08-03T15:41:43;8.45;;;3.70;;
28335;SDS011;15592;53.656;7.276;2022-08-03T15:44:09;13.93;;;3.78;;